^^
Datos históricos de la estación: Murcia-Puente Tocinos
Diario Informe para Agosto 30, 2019 Unidades:  Métrico    Ingés   Ambas
Diario Semanal Mensual Anual
  Máxima: Mínima: Promedio:
Temperatura: 31.9 °C 21.9 °C 26.5 °C
Punto de rocio: 20.1 °C 16.2 °C 18.6 °C
Humedad: 82% 40.5% 64%
Velocidad viento: 16.4km/h 0km/h 6.4km/h
Racha viento: 29.6km/h - -
Viento- - SE
Presión: 1018.7 hPa 1015.6 hPa -
Precipitación: 0.0 mm    
 
 
Tabla de datos para Agosto 30, 2019
Hora Temperatura Punto de rocio Presión Viento Velocidad viento Racha viento Humedad Intensidad lluvia(por hora) Nubes
00:04 24.4 °C 19.7 °C 1018.2 hPa NNO 2.2 km/h 5.8 km/h 75% 0.0 mm
00:09 24.4 °C 19.7 °C 1018.2 hPa NNE 2.5 km/h 7.6 km/h 75% 0.0 mm
00:14 24.4 °C 19.7 °C 1018.2 hPa NE 3.2 km/h 8 km/h 75% 0.0 mm
00:19 24.4 °C 19.7 °C 1018.2 hPa NE 3.2 km/h 8 km/h 75% 0.0 mm
00:24 24.4 °C 19.8 °C 1018.2 hPa NE 3.2 km/h 8 km/h 75.4% 0.0 mm
00:29 24.4 °C 19.9 °C 1018.2 hPa NE 3.4 km/h 8 km/h 76% 0.0 mm
00:34 24.4 °C 19.9 °C 1018.2 hPa NE 3.9 km/h 6.4 km/h 76% 0.0 mm
00:39 24.3 °C 19.8 °C 1018.2 hPa NE 3.6 km/h 8.4 km/h 76% 0.0 mm
00:44 24.3 °C 19.8 °C 1018.2 hPa NE 2.9 km/h 8.4 km/h 76% 0.0 mm
00:49 24.3 °C 19.8 °C 1018.2 hPa NE 3.4 km/h 8 km/h 76% 0.0 mm
00:54 24.2 °C 19.8 °C 1018.1 hPa NE 4.7 km/h 7.6 km/h 76.4% 0.0 mm
00:59 24.2 °C 19.9 °C 1018.1 hPa NE 4.7 km/h 8 km/h 77% 0.0 mm
01:04 24.1 °C 19.8 °C 1018.1 hPa NE 4.7 km/h 8 km/h 77% 0.0 mm
01:09 24.1 °C 19.8 °C 1018.1 hPa NE 4.4 km/h 6.4 km/h 77% 0.0 mm
01:14 24 °C 19.8 °C 1018.1 hPa NE 3.9 km/h 8 km/h 77.4% 0.0 mm
01:19 23.9 °C 19.8 °C 1018.1 hPa NE 3.9 km/h 8 km/h 78% 0.0 mm
01:24 23.9 °C 19.8 °C 1018.1 hPa NE 3.9 km/h 8 km/h 78% 0.0 mm
01:29 23.8 °C 19.7 °C 1018.1 hPa ENE 3.9 km/h 8 km/h 78% 0.0 mm
01:34 23.8 °C 19.8 °C 1018.2 hPa Este 3.9 km/h 6.4 km/h 78.5% 0.0 mm
01:39 23.7 °C 19.8 °C 1018.2 hPa Sur 3.6 km/h 5.6 km/h 79% 0.0 mm
01:44 23.7 °C 20 °C 1018.2 hPa Sur 2.9 km/h 5.6 km/h 79.7% 0.0 mm
01:49 23.7 °C 20.1 °C 1018.3 hPa SSO 2.7 km/h 5.8 km/h 80% 0.0 mm
01:54 23.7 °C 20 °C 1018.3 hPa OSO 2.2 km/h 8.4 km/h 80% 0.0 mm
01:59 23.6 °C 19.9 °C 1018.3 hPa OSO 2.8 km/h 8 km/h 80% 0.0 mm
02:04 23.5 °C 19.8 °C 1018.3 hPa OSO 3.9 km/h 8 km/h 80% 0.0 mm
02:09 23.4 °C 19.8 °C 1018.3 hPa OSO 3.4 km/h 4.8 km/h 80% 0.0 mm
02:14 23.4 °C 19.8 °C 1018.3 hPa OSO 2.2 km/h 3.2 km/h 80% 0.0 mm
02:19 23.4 °C 19.8 °C 1018.3 hPa OSO 1.6 km/h   80% 0.0 mm
02:24 23.4 °C 19.8 °C 1018.2 hPa Calm   7.4 km/h 80% 0.0 mm
02:29 23.3 °C 19.7 °C 1018.2 hPa ENE 0.8 km/h 8 km/h 80.3% 0.0 mm
02:34 23.3 °C 19.8 °C 1018.2 hPa Este 2.9 km/h 8 km/h 81% 0.0 mm
02:39 23.3 °C 19.9 °C 1018.1 hPa Este 2 km/h   81.5% 0.0 mm
02:44 23.3 °C 20.1 °C 1018.1 hPa Calm   4.7 km/h 82% 0.0 mm
02:49 23.3 °C 20.1 °C 1018.1 hPa Calm   5 km/h 82% 0.0 mm
02:54 23.3 °C 20.1 °C 1018.0 hPa Calm   4.8 km/h 82% 0.0 mm
02:59 23.2 °C 20 °C 1018.0 hPa Calm     82% 0.0 mm
03:04 23.2 °C 19.9 °C 1018.0 hPa Calm     82% 0.0 mm
03:09 23.2 °C 19.9 °C 1018.0 hPa Calm     82% 0.0 mm
03:14 23.2 °C 19.9 °C 1018.0 hPa Calm     81.8% 0.0 mm
03:19 23.2 °C 19.8 °C 1018.0 hPa Calm     81% 0.0 mm
03:24 23.3 °C 19.8 °C 1018.0 hPa Calm   7.4 km/h 81% 0.0 mm
03:29 23.3 °C 19.8 °C 1018.0 hPa Sur 0.7 km/h 8 km/h 81% 0.0 mm
03:34 23.3 °C 19.8 °C 1018.0 hPa Sur 2.2 km/h 4.8 km/h 81% 0.0 mm
03:39 23.3 °C 19.7 °C 1018.0 hPa Sur 2.2 km/h 5.8 km/h 80.1% 0.0 mm
03:44 23.3 °C 19.7 °C 1018.0 hPa SSE 2.2 km/h 7.4 km/h 80% 0.0 mm
03:49 23.3 °C 19.7 °C 1018.0 hPa SSE 2.7 km/h 8 km/h 80% 0.0 mm
03:54 23.3 °C 19.7 °C 1017.8 hPa SSE 3.9 km/h 6.4 km/h 80% 0.0 mm
03:59 23.3 °C 19.7 °C 1017.8 hPa SSE 2.6 km/h 4.7 km/h 80.4% 0.0 mm
04:04 23.2 °C 19.6 °C 1017.8 hPa Calm   5.8 km/h 80.3% 0.0 mm
04:09 23.2 °C 19.6 °C 1017.7 hPa SSE 0.9 km/h 6.4 km/h 80% 0.0 mm
04:14 23.2 °C 19.6 °C 1017.7 hPa SSE 3.2 km/h 4.8 km/h 80% 0.0 mm
04:19 23.2 °C 19.6 °C 1017.7 hPa SSE 2.9 km/h 4.7 km/h 80% 0.0 mm
04:24 23.1 °C 19.7 °C 1017.7 hPa SSE 2.2 km/h 4.8 km/h 80.9% 0.0 mm
04:29 23.1 °C 19.6 °C 1017.7 hPa SSE 1.6 km/h 3.2 km/h 81% 0.0 mm
04:34 22.9 °C 19.4 °C 1017.7 hPa Calm   5.6 km/h 80.5% 0.0 mm
04:39 22.8 °C 19.1 °C 1017.6 hPa SSE 0.8 km/h 5.8 km/h 80% 0.0 mm
04:44 22.7 °C 19.2 °C 1017.6 hPa SSE 2.9 km/h 6.4 km/h 81% 0.0 mm
04:49 22.6 °C 19.2 °C 1017.6 hPa SSE 2.1 km/h 3.9 km/h 81% 0.0 mm
04:54 22.6 °C 19.2 °C 1017.6 hPa Calm   3.7 km/h 81% 0.0 mm
04:59 22.6 °C 19.1 °C 1017.6 hPa Calm   3.2 km/h 81% 0.0 mm
05:04 22.5 °C 19.1 °C 1017.6 hPa Calm   3.7 km/h 81% 0.0 mm
05:09 22.5 °C 19 °C 1017.6 hPa Calm   3.2 km/h 81% 0.0 mm
05:14 22.5 °C 19.1 °C 1017.6 hPa Calm     81% 0.0 mm
05:19 22.5 °C 19.1 °C 1017.6 hPa Calm     81% 0.0 mm
05:24 22.6 °C 19 °C 1017.6 hPa Calm     80.3% 0.0 mm
05:29 22.4 °C 18.8 °C 1017.6 hPa SE 0.6 km/h 7.6 km/h 80% 0.0 mm
05:34 22.4 °C 18.8 °C 1017.6 hPa SE 2.2 km/h 8 km/h 80.1% 0.0 mm
05:39 22.3 °C 18.9 °C 1017.6 hPa SE 2.4 km/h 8 km/h 81% 0.0 mm
05:44 22.3 °C 18.9 °C 1017.6 hPa SSE 2.9 km/h 5.8 km/h 81% 0.0 mm
05:49 22.3 °C 19 °C 1017.6 hPa SSE 2.7 km/h 6.4 km/h 81.9% 0.0 mm
05:54 22.3 °C 19.1 °C 1017.6 hPa SSE 2.2 km/h 3.2 km/h 82% 0.0 mm
05:59 22.3 °C 19.1 °C 1017.6 hPa SSE 1.5 km/h   82% 0.0 mm
06:04 22.4 °C 19.2 °C 1017.7 hPa Calm   2.9 km/h 82% 0.0 mm
06:09 22.4 °C 19.2 °C 1017.7 hPa Calm   4.7 km/h 82% 0.0 mm
06:14 22.3 °C 19.1 °C 1017.7 hPa Calm   5 km/h 82% 0.0 mm
06:19 22.3 °C 19.1 °C 1017.7 hPa Sur 0.7 km/h 5.8 km/h 82% 0.0 mm
06:24 22.3 °C 19.1 °C 1017.5 hPa Sur 2.2 km/h 6.4 km/h 82% 0.0 mm
06:29 22.3 °C 19.1 °C 1017.5 hPa Sur 2.5 km/h 5.8 km/h 82% 0.0 mm
06:34 22.3 °C 19.1 °C 1017.5 hPa Sur 3.2 km/h 6.4 km/h 82% 0.0 mm
06:39 22.2 °C 18.9 °C 1017.5 hPa Sur 3.4 km/h 11.1 km/h 81.4% 0.0 mm
06:44 22.2 °C 18.7 °C 1017.5 hPa SSO 3.9 km/h 11.3 km/h 80.3% 0.0 mm
06:49 22.2 °C 18.6 °C 1017.7 hPa SO 4.6 km/h 11.3 km/h 80% 0.0 mm
06:54 22.2 °C 18.6 °C 1017.7 hPa SO 6.5 km/h 9.7 km/h 80% 0.0 mm
06:59 22.2 °C 18.6 °C 1017.7 hPa OSO 6 km/h 9.7 km/h 80% 0.0 mm
07:04 22.2 °C 18.6 °C 1018.0 hPa OSO 5 km/h 9.7 km/h 80% 0.0 mm
07:09 22.1 °C 18.5 °C 1018.0 hPa OSO 5 km/h 9.7 km/h 80% 0.0 mm
07:14 22.1 °C 18.5 °C 1018.0 hPa OSO 5 km/h 8 km/h 80% 0.0 mm
07:19 22.1 °C 18.5 °C 1018.0 hPa OSO 4.2 km/h 8 km/h 80% 0.0 mm
07:24 22.1 °C 18.5 °C 1018.0 hPa OSO 2.2 km/h 7.4 km/h 80% 0.0 mm
07:29 22.1 °C 18.5 °C 1018.0 hPa SO 2.7 km/h 8 km/h 80% 0.0 mm
07:34 22.1 °C 18.5 °C 1018.2 hPa SSE 3.9 km/h 8.4 km/h 80% 0.0 mm
07:39 22.1 °C 18.5 °C 1018.2 hPa SE 4.1 km/h 8 km/h 80% 0.0 mm
07:44 22.1 °C 18.5 °C 1018.2 hPa SSE 4.7 km/h 10 km/h 80% 0.0 mm
07:49 22 °C 18.5 °C 1018.3 hPa SSE 5.3 km/h 10 km/h 80.6% 0.0 mm
07:54 21.9 °C 18.5 °C 1018.3 hPa Sur 6.9 km/h 9.7 km/h 81% 0.0 mm
07:59 21.9 °C 18.4 °C 1018.3 hPa Sur 6.8 km/h 10 km/h 80.4% 0.0 mm
08:04 21.9 °C 18.3 °C 1018.4 hPa Sur 6.5 km/h 9.7 km/h 80% 0.0 mm
08:09 21.9 °C 18.1 °C 1018.4 hPa SSO 6 km/h 10 km/h 79.1% 0.0 mm
08:14 22 °C 18.1 °C 1018.4 hPa OSO 5 km/h 9.7 km/h 78.8% 0.0 mm
08:19 22.1 °C 18.1 °C 1018.4 hPa SO 5 km/h 8.4 km/h 78% 0.0 mm
08:24 22.2 °C 18 °C 1018.4 hPa OSO 5 km/h 9.3 km/h 77.1% 0.0 mm
08:29 22.3 °C 18.1 °C 1018.4 hPa OSO 5 km/h 11.1 km/h 77% 0.0 mm
08:34 22.4 °C 18.2 °C 1018.4 hPa OSO 5 km/h 11.3 km/h 77% 0.0 mm
08:39 22.6 °C 18.2 °C 1018.4 hPa OSO 5 km/h 9.3 km/h 76.3% 0.0 mm
08:44 22.7 °C 18.1 °C 1018.4 hPa SO 5 km/h 9.7 km/h 75.5% 0.0 mm
08:49 22.7 °C 17.7 °C 1018.6 hPa SO 5 km/h 9.7 km/h 73.3% 0.0 mm
08:54 22.8 °C 17.4 °C 1018.6 hPa OSO 5 km/h 9.7 km/h 71.6% 0.0 mm
08:59 22.8 °C 17.3 °C 1018.6 hPa OSO 5.2 km/h 9.7 km/h 71.2% 0.0 mm
09:04 22.9 °C 17.5 °C 1018.7 hPa Oeste 5.8 km/h 9.7 km/h 71.8% 0.0 mm
09:09 23.1 °C 17.6 °C 1018.7 hPa OSO 5.6 km/h 8.4 km/h 71.1% 0.0 mm
09:14 23.2 °C 17.5 °C 1018.7 hPa OSO 5 km/h 8 km/h 70.4% 0.0 mm
09:19 23.3 °C 17.6 °C 1018.7 hPa SO 4.7 km/h 8.4 km/h 70% 0.0 mm
09:24 23.6 °C 17.7 °C 1018.7 hPa Sur 3.9 km/h 9.5 km/h 69.4% 0.0 mm
09:29 23.7 °C 17.7 °C 1018.7 hPa SSO 4.4 km/h 9.7 km/h 69% 0.0 mm
09:34 23.8 °C 17.7 °C 1018.7 hPa SSO 5.8 km/h 9.7 km/h 68.3% 0.0 mm
09:39 23.8 °C 17.6 °C 1018.7 hPa Sur 5.8 km/h 10 km/h 68.1% 0.0 mm
09:44 23.9 °C 17.7 °C 1018.7 hPa SSO 5.8 km/h 9.7 km/h 68.5% 0.0 mm
09:49 24 °C 17.8 °C 1018.7 hPa SSO 5.5 km/h 10 km/h 68% 0.0 mm
09:54 24.1 °C 17.8 °C 1018.6 hPa SSO 5 km/h 9.7 km/h 68% 0.0 mm
09:59 24.3 °C 17.8 °C 1018.6 hPa SO 4.9 km/h 10 km/h 67.3% 0.0 mm
10:04 24.4 °C 17.7 °C 1018.6 hPa SO 4.7 km/h 9.7 km/h 66% 0.0 mm
10:09 24.7 °C 17.9 °C 1018.5 hPa SO 5 km/h 9.7 km/h 65.9% 0.0 mm
10:14 24.8 °C 18 °C 1018.5 hPa SSO 5.8 km/h 11.1 km/h 65.5% 0.0 mm
10:19 24.9 °C 18 °C 1018.6 hPa SSO 6.1 km/h 13 km/h 65.2% 0.0 mm
10:24 25.1 °C 18 °C 1018.6 hPa SO 6.9 km/h 12.9 km/h 64.9% 0.0 mm
10:29 25.2 °C 18 °C 1018.6 hPa SSO 6.9 km/h 13 km/h 64.6% 0.0 mm
10:34 25.2 °C 18 °C 1018.7 hPa SSO 6.9 km/h 13 km/h 64.5% 0.0 mm
10:39 25.3 °C 18 °C 1018.7 hPa SSO 7.3 km/h 15.6 km/h 64% 0.0 mm
10:44 25.5 °C 18.2 °C 1018.7 hPa Sur 8.4 km/h 16.1 km/h 64% 0.0 mm
10:49 25.7 °C 18.4 °C 1018.7 hPa SSO 7.9 km/h 11.3 km/h 64% 0.0 mm
10:54 25.8 °C 18.4 °C 1018.6 hPa SSO 6.9 km/h 11.3 km/h 63.5% 0.0 mm
10:59 26.1 °C 18.3 °C 1018.6 hPa SO 6.2 km/h 10 km/h 62.4% 0.0 mm
11:04 26.2 °C 18.2 °C 1018.6 hPa SO 4.7 km/h 11.9 km/h 61.4% 0.0 mm
11:09 26.3 °C 18.1 °C 1018.6 hPa ONO 5 km/h 12.2 km/h 60.6% 0.0 mm
11:14 26.6 °C 18.3 °C 1018.6 hPa Oeste 5.8 km/h 12.9 km/h 60.5% 0.0 mm
11:19 26.8 °C 18.2 °C 1018.7 hPa Sur 5.2 km/h 9.7 km/h 59.2% 0.0 mm
11:24 27 °C 18.1 °C 1018.7 hPa OSO 3.9 km/h 9.5 km/h 58.2% 0.0 mm
11:29 27.2 °C 18.1 °C 1018.7 hPa OSO 4.2 km/h 9.7 km/h 57.4% 0.0 mm
11:34 27.2 °C 18 °C 1018.7 hPa SO 5 km/h 9.7 km/h 57% 0.0 mm
11:39 27.5 °C 17.9 °C 1018.6 hPa ESE 4.5 km/h 8 km/h 56% 0.0 mm
11:44 27.8 °C 18 °C 1018.6 hPa NNE 3.2 km/h 8.4 km/h 55.3% 0.0 mm
11:49 28.1 °C 18.2 °C 1018.6 hPa NNE 3.2 km/h 8 km/h 54.9% 0.0 mm
11:54 28.5 °C 18.1 °C 1018.4 hPa NNO 3.2 km/h 7.6 km/h 53.4% 0.0 mm
11:59 28.7 °C 18.2 °C 1018.4 hPa ONO 3.2 km/h 8 km/h 53.1% 0.0 mm
12:04 28.8 °C 18.2 °C 1018.4 hPa Oeste 3.2 km/h 9.5 km/h 53% 0.0 mm
12:09 28.7 °C 18.2 °C 1018.3 hPa North 3.6 km/h 9.7 km/h 53% 0.0 mm
12:14 28.9 °C 17.7 °C 1018.3 hPa ESE 4.7 km/h 9.5 km/h 51% 0.0 mm
12:19 29.2 °C 17.5 °C 1018.3 hPa ESE 4.7 km/h 9.7 km/h 49.5% 0.0 mm
12:24 29.3 °C 17.6 °C 1018.2 hPa Este 4.7 km/h 8.7 km/h 49.4% 0.0 mm
12:29 29.6 °C 17.8 °C 1018.2 hPa NNO 4.7 km/h 11.1 km/h 49.3% 0.0 mm
12:34 29.7 °C 18 °C 1018.2 hPa ENE 4.7 km/h 11.3 km/h 49.6% 0.0 mm
12:39 29.9 °C 17.9 °C 1018.2 hPa ENE 4.7 km/h 9.7 km/h 48.6% 0.0 mm
12:44 30.2 °C 18.3 °C 1018.2 hPa ENE 4.7 km/h 13 km/h 49.1% 0.0 mm
12:49 30.3 °C 18.6 °C 1018.2 hPa ENE 5 km/h 14.8 km/h 49.6% 0.0 mm
12:54 30.2 °C 18.8 °C 1018.0 hPa NE 5.8 km/h 14.8 km/h 50.6% 0.0 mm
12:59 30.2 °C 18.9 °C 1018.0 hPa ENE 6.4 km/h 14.5 km/h 51.2% 0.0 mm
13:04 30.2 °C 18.9 °C 1018.0 hPa ENE 7.6 km/h 20.4 km/h 50.7% 0.0 mm
13:09 30.1 °C 18.6 °C 1017.9 hPa ENE 7.9 km/h 20.9 km/h 50.1% 0.0 mm
13:14 30.1 °C 18.7 °C 1017.9 hPa NE 8.7 km/h 16.7 km/h 50.5% 0.0 mm
13:19 30.2 °C 18.5 °C 1017.9 hPa NE 8.9 km/h 18.5 km/h 49.7% 0.0 mm
13:24 30.3 °C 18.4 °C 1017.8 hPa NE 9.5 km/h 19.3 km/h 49.1% 0.0 mm
13:29 30.5 °C 18.3 °C 1017.8 hPa NE 9.2 km/h 16.1 km/h 48.1% 0.0 mm
13:34 30.8 °C 18.2 °C 1017.8 hPa NE 8.4 km/h 12.9 km/h 47.1% 0.0 mm
13:39 30.9 °C 18.3 °C 1017.6 hPa ESE 8.1 km/h 14.8 km/h 47% 0.0 mm
13:44 30.9 °C 18.3 °C 1017.6 hPa ESE 7.6 km/h 14.8 km/h 47.1% 0.0 mm
13:49 31.1 °C 18.4 °C 1017.6 hPa NE 7.9 km/h 17.2 km/h 47% 0.0 mm
13:54 31.2 °C 18.4 °C 1017.4 hPa Este 8.7 km/h 17.7 km/h 46.5% 0.0 mm
13:59 31.4 °C 18.7 °C 1017.4 hPa NE 8.3 km/h 18.5 km/h 46.9% 0.0 mm
14:04 31.4 °C 18.7 °C 1017.4 hPa NE 7.6 km/h 25.9 km/h 47% 0.0 mm
14:09 31.3 °C 18.6 °C 1017.2 hPa NE 8.9 km/h 25.7 km/h 46.9% 0.0 mm
14:14 31.4 °C 18.6 °C 1017.2 hPa NE 11.9 km/h 19.3 km/h 46.5% 0.0 mm
14:19 31.6 °C 18.4 °C 1017.2 hPa ENE 11.2 km/h 20.4 km/h 45.4% 0.0 mm
14:24 31.7 °C 18.4 °C 1017.1 hPa Este 9.5 km/h 20.9 km/h 45.1% 0.0 mm
14:29 31.8 °C 18.3 °C 1017.1 hPa Este 9.5 km/h 19.3 km/h 44.8% 0.0 mm
14:34 31.8 °C 18.1 °C 1017.1 hPa ESE 9.5 km/h 17.7 km/h 44% 0.0 mm
14:39 31.9 °C 18.1 °C 1017.0 hPa SE 9.6 km/h 20.4 km/h 44.1% 0.0 mm
14:44 31.9 °C 18.1 °C 1017.0 hPa SE 10 km/h 20.9 km/h 44% 0.0 mm
14:49 31.8 °C 18.1 °C 1017.0 hPa SE 10 km/h 19.3 km/h 44.1% 0.0 mm
14:54 31.8 °C 18.5 °C 1016.8 hPa ESE 10 km/h 20.4 km/h 45.1% 0.0 mm
14:59 31.8 °C 19.2 °C 1016.8 hPa SE 10.9 km/h 24.5 km/h 47.2% 0.0 mm
15:04 31.7 °C 19.1 °C 1016.8 hPa SE 13 km/h 24.1 km/h 47.1% 0.0 mm
15:09 31.7 °C 19.3 °C 1016.7 hPa SE 13 km/h 24.1 km/h 47.9% 0.0 mm
15:14 31.7 °C 19.2 °C 1016.7 hPa ESE 13 km/h 29.6 km/h 47.5% 0.0 mm
15:19 31.5 °C 18.8 °C 1016.7 hPa SE 13.5 km/h 29.6 km/h 46.9% 0.0 mm
15:24 31.5 °C 18.6 °C 1016.7 hPa ESE 14.8 km/h 27.8 km/h 46.3% 0.0 mm
15:29 31.6 °C 18.4 °C 1016.7 hPa SE 14.6 km/h 27.8 km/h 45.7% 0.0 mm
15:34 31.7 °C 18.3 °C 1016.7 hPa SE 14 km/h 27.8 km/h 45% 0.0 mm
15:39 31.6 °C 18.3 °C 1016.5 hPa SE 14 km/h 27.4 km/h 45.1% 0.0 mm
15:44 31.7 °C 18 °C 1016.5 hPa ESE 14 km/h 25.9 km/h 44.3% 0.0 mm
15:49 31.7 °C 17.7 °C 1016.5 hPa SE 14 km/h 27.8 km/h 43.4% 0.0 mm
15:54 31.7 °C 17.5 °C 1016.5 hPa SE 14 km/h 27.8 km/h 42.6% 0.0 mm
15:59 31.6 °C 17.3 °C 1016.5 hPa SE 14.8 km/h 27.4 km/h 42.5% 0.0 mm
16:04 31.3 °C 16.7 °C 1016.5 hPa SE 16.4 km/h 27.8 km/h 41.5% 0.0 mm
16:09 31.4 °C 17 °C 1016.2 hPa SE 16.4 km/h 27.4 km/h 42% 0.0 mm
16:14 31.6 °C 17.2 °C 1016.2 hPa SE 16.4 km/h 24.1 km/h 42.4% 0.0 mm
16:19 31.6 °C 17.7 °C 1016.2 hPa ESE 16.2 km/h 24.5 km/h 43.6% 0.0 mm
16:24 31.6 °C 17.8 °C 1016.0 hPa SE 15.6 km/h 28.2 km/h 44% 0.0 mm
16:29 31.6 °C 17.6 °C 1016.0 hPa SE 15.6 km/h 27.8 km/h 43.3% 0.0 mm
16:34 31.7 °C 17.7 °C 1016.0 hPa ESE 15.6 km/h 24.1 km/h 43.4% 0.0 mm
16:39 31.9 °C 17.6 °C 1016.0 hPa ESE 14.6 km/h 20.9 km/h 42.5% 0.0 mm
16:44 31.7 °C 17.1 °C 1016.0 hPa ESE 12.2 km/h 22.5 km/h 41.7% 0.0 mm
16:49 31.6 °C 17.3 °C 1016.0 hPa Este 12.5 km/h 22.5 km/h 42.4% 0.0 mm
16:54 31.7 °C 16.9 °C 1015.8 hPa ESE 13 km/h 25.9 km/h 41.1% 0.0 mm
16:59 31.5 °C 16.7 °C 1015.8 hPa SE 13.4 km/h 25.7 km/h 41% 0.0 mm
17:04 31.4 °C 16.5 °C 1015.8 hPa ESE 14 km/h 26.2 km/h 40.9% 0.0 mm
17:09 31.3 °C 16.7 °C 1015.8 hPa ESE 14.5 km/h 25.7 km/h 41.7% 0.0 mm
17:14 31.3 °C 16.6 °C 1015.8 hPa ESE 15.6 km/h 24.1 km/h 41.4% 0.0 mm
17:19 31.3 °C 16.7 °C 1015.8 hPa ESE 15.1 km/h 24.1 km/h 41.7% 0.0 mm
17:24 31.3 °C 16.7 °C 1015.7 hPa ESE 13.7 km/h 27.8 km/h 41.7% 0.0 mm
17:29 31.2 °C 16.8 °C 1015.7 hPa Este 13.8 km/h 27.4 km/h 42% 0.0 mm
17:34 31.2 °C 16.5 °C 1015.7 hPa Este 14 km/h 24.1 km/h 41.3% 0.0 mm
17:39 31.2 °C 16.4 °C 1015.7 hPa ESE 13.4 km/h 24.1 km/h 41.2% 0.0 mm
17:44 31.2 °C 16.2 °C 1015.7 hPa ESE 11.9 km/h 26.2 km/h 40.5% 0.0 mm
17:49 31.2 °C 16.2 °C 1015.8 hPa ESE 11.9 km/h 25.7 km/h 40.6% 0.0 mm
17:54 31.1 °C 16.7 °C 1015.8 hPa Este 11.9 km/h 20.9 km/h 42% 0.0 mm
17:59 30.9 °C 16.6 °C 1015.8 hPa Este 11.3 km/h 18.5 km/h 42% 0.0 mm
18:04 30.8 °C 16.6 °C 1015.9 hPa ESE 10 km/h 19.3 km/h 42.3% 0.0 mm
18:09 30.8 °C 16.4 °C 1015.9 hPa ESE 10 km/h 19.3 km/h 41.9% 0.0 mm
18:14 30.8 °C 16.4 °C 1015.9 hPa ESE 10 km/h 20.4 km/h 42% 0.0 mm
18:19 30.7 °C 16.3 °C 1015.9 hPa ESE 10.5 km/h 20.9 km/h 42% 0.0 mm
18:24 30.7 °C 16.5 °C 1015.9 hPa ESE 11.9 km/h 16.7 km/h 42.6% 0.0 mm
18:29 30.7 °C 16.3 °C 1015.9 hPa ESE 11.4 km/h 16.1 km/h 42% 0.0 mm
18:34 30.6 °C 16.6 °C 1015.9 hPa ESE 10 km/h 14.8 km/h 42.9% 0.0 mm
18:39 30.6 °C 16.9 °C 1015.9 hPa Este 9.5 km/h 16.7 km/h 43.7% 0.0 mm
18:44 30.6 °C 16.6 °C 1015.9 hPa ESE 8.4 km/h 16.7 km/h 43% 0.0 mm
18:49 30.5 °C 16.9 °C 1015.9 hPa ESE 8.9 km/h 16.1 km/h 44.2% 0.0 mm
18:54 30.4 °C 17.2 °C 1015.9 hPa ESE 10.3 km/h 16.7 km/h 45% 0.0 mm
18:59 30.4 °C 17.3 °C 1015.9 hPa ESE 10.2 km/h 16.1 km/h 45.4% 0.0 mm
19:04 30.3 °C 17 °C 1015.9 hPa ESE 10 km/h 16.1 km/h 44.9% 0.0 mm
19:09 30.3 °C 17.1 °C 1015.9 hPa ESE 9.6 km/h 14.5 km/h 45.2% 0.0 mm
19:14 30.2 °C 17.4 °C 1015.9 hPa ENE 8.7 km/h 16.7 km/h 46.2% 0.0 mm
19:19 30.1 °C 17.6 °C 1015.9 hPa ENE 8.7 km/h 16.1 km/h 47% 0.0 mm
19:24 30.1 °C 17.5 °C 1015.8 hPa Este 8.7 km/h 14.8 km/h 47% 0.0 mm
19:29 29.9 °C 17.7 °C 1015.8 hPa ENE 8.4 km/h 14.5 km/h 47.8% 0.0 mm
19:34 29.8 °C 18 °C 1015.8 hPa ENE 7.6 km/h 14.8 km/h 49.1% 0.0 mm
19:39 29.6 °C 18.1 °C 1015.6 hPa NE 7.9 km/h 19 km/h 50.1% 0.0 mm
19:44 29.3 °C 18.2 °C 1015.6 hPa NE 8.7 km/h 19.3 km/h 51% 0.0 mm
19:49 29.3 °C 18.2 °C 1015.7 hPa NE 8.7 km/h 16.1 km/h 51.2% 0.0 mm
19:54 29.2 °C 18.4 °C 1015.7 hPa NE 8.7 km/h 14.8 km/h 52.3% 0.0 mm
19:59 29.1 °C 18.5 °C 1015.7 hPa ENE 8.6 km/h 14.8 km/h 53% 0.0 mm
20:04 28.9 °C 18.4 °C 1015.8 hPa NE 8.4 km/h 14.5 km/h 53% 0.0 mm
20:09 28.9 °C 18.3 °C 1015.8 hPa ENE 7.8 km/h 11.9 km/h 53% 0.0 mm
20:14 28.8 °C 18.5 °C 1015.8 hPa ENE 6.5 km/h 13.7 km/h 53.9% 0.0 mm
20:19 28.7 °C 18.6 °C 1015.9 hPa ENE 6.8 km/h 14.8 km/h 54.3% 0.0 mm
20:24 28.6 °C 18.8 °C 1015.9 hPa NE 7.6 km/h 16.1 km/h 55.4% 0.0 mm
20:29 28.3 °C 18.8 °C 1015.9 hPa NE 8.1 km/h 17.2 km/h 56.2% 0.0 mm
20:34 28.2 °C 18.9 °C 1015.9 hPa NE 9.5 km/h 17.7 km/h 57% 0.0 mm
20:39 28 °C 18.9 °C 1015.9 hPa NE 9.3 km/h 14.5 km/h 57.7% 0.0 mm
20:44 27.9 °C 18.9 °C 1015.9 hPa ENE 8.7 km/h 11.3 km/h 58% 0.0 mm
20:49 27.8 °C 19 °C 1016.0 hPa NE 8.1 km/h 13.7 km/h 58.8% 0.0 mm
20:54 27.7 °C 19.1 °C 1016.0 hPa NE 6.5 km/h 14.8 km/h 59.6% 0.0 mm
20:59 27.4 °C 19.1 °C 1016.0 hPa NE 7.6 km/h 16.7 km/h 60.7% 0.0 mm
21:04 27.3 °C 19.2 °C 1016.1 hPa ENE 10 km/h 16.1 km/h 61.3% 0.0 mm
21:09 27.2 °C 19.3 °C 1016.1 hPa ENE 9.5 km/h 14.5 km/h 62% 0.0 mm
21:14 27 °C 19.3 °C 1016.1 hPa NE 8.4 km/h 13.7 km/h 63% 0.0 mm
21:19 26.8 °C 19.4 °C 1016.2 hPa NE 8.5 km/h 14.8 km/h 63.9% 0.0 mm
21:24 26.7 °C 19.6 °C 1016.2 hPa NE 8.7 km/h 14.5 km/h 64.9% 0.0 mm
21:29 26.7 °C 19.5 °C 1016.2 hPa NE 9 km/h 13 km/h 65% 0.0 mm
21:34 26.6 °C 19.5 °C 1016.3 hPa NNE 9.5 km/h 14 km/h 65.2% 0.0 mm
21:39 26.4 °C 19.6 °C 1016.3 hPa NNE 9.3 km/h 14.8 km/h 66% 0.0 mm
21:44 26.3 °C 19.5 °C 1016.3 hPa NE 8.7 km/h 14.5 km/h 66.2% 0.0 mm
21:49 26.2 °C 19.6 °C 1016.5 hPa NE 8.9 km/h 14.8 km/h 67% 0.0 mm
21:54 26.1 °C 19.6 °C 1016.5 hPa NE 9.5 km/h 14.8 km/h 67.4% 0.0 mm
21:59 26 °C 19.6 °C 1016.5 hPa NE 9.2 km/h 13 km/h 68% 0.0 mm
22:04 26 °C 19.6 °C 1016.6 hPa NE 8.7 km/h 12.9 km/h 68% 0.0 mm
22:09 26 °C 19.6 °C 1016.6 hPa NE 8.4 km/h 11.3 km/h 68% 0.0 mm
22:14 25.9 °C 19.6 °C 1016.6 hPa NE 7.6 km/h 14.8 km/h 68% 0.0 mm
22:19 25.8 °C 19.6 °C 1016.6 hPa NE 7.9 km/h 14.8 km/h 68.7% 0.0 mm
22:24 25.8 °C 19.7 °C 1016.6 hPa NE 8.7 km/h 14.5 km/h 69% 0.0 mm
22:29 25.7 °C 19.6 °C 1016.6 hPa NE 8 km/h 11.3 km/h 69% 0.0 mm
22:34 25.6 °C 19.7 °C 1016.7 hPa NE 6.5 km/h 13 km/h 69.6% 0.0 mm
22:39 25.5 °C 19.6 °C 1016.7 hPa NNE 6.8 km/h 12.9 km/h 70% 0.0 mm
22:44 25.4 °C 19.7 °C 1016.7 hPa North 7.6 km/h 11.3 km/h 70.5% 0.0 mm
22:49 25.4 °C 19.7 °C 1016.7 hPa NNO 7.2 km/h 9.7 km/h 71% 0.0 mm
22:54 25.3 °C 19.7 °C 1016.7 hPa North 6.5 km/h 10 km/h 71% 0.0 mm
22:59 25.3 °C 19.7 °C 1016.7 hPa NNO 5.9 km/h 9.7 km/h 71% 0.0 mm
23:04 25.3 °C 19.9 °C 1017.0 hPa NNO 4.7 km/h 8 km/h 72% 0.0 mm
23:09 25.3 °C 19.9 °C 1017.0 hPa NNO 4 km/h 7.4 km/h 72% 0.0 mm
23:14 25.3 °C 19.9 °C 1017.0 hPa NNE 2.2 km/h 8.4 km/h 72% 0.0 mm
23:19 25.2 °C 19.8 °C 1017.0 hPa NE 3 km/h 9.7 km/h 72% 0.0 mm
23:24 25.2 °C 19.8 °C 1016.9 hPa NE 5 km/h 9.7 km/h 72% 0.0 mm
23:29 25.2 °C 20 °C 1016.9 hPa NE 5.4 km/h 10 km/h 72.9% 0.0 mm
23:34 25.1 °C 19.9 °C 1016.9 hPa NE 6.5 km/h 9.7 km/h 73% 0.0 mm
23:39 25.1 °C 19.9 °C 1016.8 hPa Este 5.7 km/h 8 km/h 73% 0.0 mm
23:44 25.1 °C 19.9 °C 1016.8 hPa ESE 3.9 km/h 8.4 km/h 73% 0.0 mm
23:49 25 °C 19.8 °C 1016.8 hPa Este 4.1 km/h 8 km/h 73% 0.0 mm
23:54 24.9 °C 19.9 °C 1016.6 hPa Este 4.7 km/h 8 km/h 73.8% 0.0 mm
23:59 24.9 °C 19.9 °C 1016.6 hPa ENE 3.8 km/h 4.8 km/h 74% 0.0 mm
Murcia-Puente Tocinos, Espa?a
Compliments of Weather Underground - 3.25 mb

La estación de MeteoMurcia.com, publica sus datos en los siguientes proyectos:

Weather Underground PWS IMURCIAP2 Meteoclimatic www.awekas.at

Web Analytics

Clicky